createdAt,value
2017-11-29T00:00:41.957Z,0
2017-11-29T00:01:41.968Z,0
2017-11-29T00:02:41.699Z,0
2017-11-29T00:03:41.728Z,0
2017-11-29T00:04:42.028Z,0
2017-11-29T00:05:42.014Z,0
2017-11-29T00:06:42.041Z,0
2017-11-29T00:07:42.047Z,0
2017-11-29T00:08:41.783Z,0
2017-11-29T00:09:41.801Z,0
2017-11-29T00:10:41.532Z,0
2017-11-29T00:11:42.097Z,0
2017-11-29T00:12:42.088Z,0
2017-11-29T00:13:42.113Z,0
2017-11-29T00:14:42.166Z,0
2017-11-29T00:15:41.593Z,0
2017-11-29T00:16:41.882Z,0
2017-11-29T00:17:42.144Z,0
2017-11-29T00:18:42.169Z,0
2017-11-29T00:19:41.925Z,0
2017-11-29T00:20:41.931Z,0
2017-11-29T00:21:41.931Z,0
2017-11-29T00:22:41.932Z,0
2017-11-29T00:23:41.949Z,0
2017-11-29T00:24:42.235Z,0
2017-11-29T00:25:42.256Z,0
2017-11-29T00:26:42.263Z,0
2017-11-29T00:27:41.999Z,0
2017-11-29T00:28:42.280Z,0
2017-11-29T00:29:42.018Z,0
2017-11-29T00:30:42.067Z,0
2017-11-29T00:31:42.318Z,0
2017-11-29T00:32:42.353Z,0
2017-11-29T00:33:42.072Z,0
2017-11-29T00:34:41.810Z,0
2017-11-29T00:35:42.090Z,0
2017-11-29T00:36:42.380Z,0
2017-11-29T00:37:42.379Z,0
2017-11-29T00:38:42.145Z,0
2017-11-29T00:39:42.404Z,0
2017-11-29T00:40:41.887Z,0
2017-11-29T00:41:42.437Z,0
2017-11-29T00:42:42.180Z,0
2017-11-29T00:43:42.457Z,0
2017-11-29T00:44:42.200Z,0
2017-11-29T00:45:42.205Z,0
2017-11-29T00:46:42.480Z,0
2017-11-29T00:47:42.247Z,0
2017-11-29T00:48:41.959Z,0
2017-11-29T00:49:41.974Z,0
2017-11-29T00:50:42.528Z,0
2017-11-29T00:51:41.997Z,0
2017-11-29T00:52:42.282Z,0
2017-11-29T00:53:42.303Z,0
2017-11-29T00:54:42.591Z,0
2017-11-29T00:55:42.050Z,0
2017-11-29T00:56:42.608Z,0
2017-11-29T00:57:42.350Z,0
2017-11-29T00:58:42.353Z,0
2017-11-29T00:59:42.376Z,0
2017-11-29T01:00:42.372Z,0
2017-11-29T01:01:42.682Z,0
2017-11-29T01:02:42.665Z,0
2017-11-29T01:03:42.407Z,0
2017-11-29T01:04:42.711Z,0
2017-11-29T01:05:42.155Z,0
2017-11-29T01:06:42.719Z,0
2017-11-29T01:07:42.462Z,0
2017-11-29T01:08:42.197Z,0
2017-11-29T01:09:42.745Z,0
2017-11-29T01:10:42.497Z,0
2017-11-29T01:11:42.233Z,0
2017-11-29T01:12:42.886Z,0
2017-11-29T01:13:42.801Z,0
2017-11-29T01:14:42.818Z,0
2017-11-29T01:15:42.571Z,0
2017-11-29T01:16:42.554Z,0
2017-11-29T01:17:42.299Z,0
2017-11-29T01:18:42.849Z,0
2017-11-29T01:19:42.590Z,0
2017-11-29T01:20:42.597Z,0
2017-11-29T01:21:42.344Z,0
2017-11-29T01:22:42.622Z,0
2017-11-29T01:23:42.638Z,0
2017-11-29T01:24:42.927Z,0
2017-11-29T01:25:42.936Z,0
2017-11-29T01:26:42.402Z,0
2017-11-29T01:27:42.689Z,0
2017-11-29T01:28:42.426Z,0
2017-11-29T01:29:42.974Z,0
2017-11-29T01:30:42.727Z,0
2017-11-29T01:31:43.004Z,0
2017-11-29T01:32:42.739Z,0
2017-11-29T01:33:43.019Z,0
2017-11-29T01:34:43.048Z,0
2017-11-29T01:35:42.792Z,0
2017-11-29T01:36:42.513Z,0
2017-11-29T01:37:43.072Z,0
2017-11-29T01:38:43.071Z,0
2017-11-29T01:39:43.093Z,0
2017-11-29T01:40:42.571Z,0
2017-11-29T01:41:43.132Z,0
2017-11-29T01:42:43.121Z,0
2017-11-29T01:43:42.884Z,0
2017-11-29T01:44:42.610Z,0
2017-11-29T01:45:43.170Z,0
2017-11-29T01:46:43.189Z,0
2017-11-29T01:47:43.187Z,0
2017-11-29T01:48:43.202Z,0
2017-11-29T01:49:42.949Z,0
2017-11-29T01:50:43.227Z,0
2017-11-29T01:51:42.964Z,0
2017-11-29T01:52:43.242Z,0
2017-11-29T01:53:43.266Z,0
2017-11-29T01:54:43.263Z,0
2017-11-29T01:55:43.301Z,0
2017-11-29T01:56:43.023Z,0
2017-11-29T01:57:43.313Z,0
2017-11-29T01:58:43.319Z,0
2017-11-29T01:59:43.328Z,0
2017-11-29T02:00:43.060Z,0
2017-11-29T02:01:42.807Z,0
2017-11-29T02:02:43.096Z,0
2017-11-29T02:03:43.445Z,0
2017-11-29T02:04:43.385Z,0
2017-11-29T02:05:43.458Z,0
2017-11-29T02:06:43.140Z,0
2017-11-29T02:07:43.144Z,0
2017-11-29T02:08:43.428Z,0
2017-11-29T02:09:43.488Z,0
2017-11-29T02:10:43.187Z,0
2017-11-29T02:11:43.466Z,0
2017-11-29T02:12:43.472Z,0
2017-11-29T02:13:42.946Z,0
2017-11-29T02:14:43.512Z,0
2017-11-29T02:15:43.240Z,0
2017-11-29T02:16:43.710Z,0
2017-11-29T02:17:43.689Z,0
2017-11-29T02:18:43.592Z,0
2017-11-29T02:19:43.549Z,0
2017-11-29T02:20:43.571Z,0
2017-11-29T02:21:43.307Z,0
2017-11-29T02:22:43.313Z,0
2017-11-29T02:23:43.329Z,0
2017-11-29T02:24:43.613Z,0
2017-11-29T02:25:43.618Z,0
2017-11-29T02:26:43.634Z,0
2017-11-29T02:27:43.647Z,0
2017-11-29T02:28:43.663Z,0
2017-11-29T02:29:43.398Z,0
2017-11-29T02:30:43.671Z,0
2017-11-29T02:31:43.712Z,0
2017-11-29T02:32:43.445Z,0
2017-11-29T02:33:43.726Z,0
2017-11-29T02:34:43.461Z,0
2017-11-29T02:35:43.193Z,0
2017-11-29T02:36:43.493Z,0
2017-11-29T02:37:43.778Z,0
2017-11-29T02:38:43.779Z,0
2017-11-29T02:39:43.522Z,0
2017-11-29T02:40:43.532Z,0
2017-11-29T02:41:43.537Z,0
2017-11-29T02:42:43.276Z,0
2017-11-29T02:43:43.300Z,0
2017-11-29T02:44:43.845Z,0
2017-11-29T02:45:43.593Z,0
2017-11-29T02:46:43.858Z,0
2017-11-29T02:47:43.875Z,0
2017-11-29T02:48:43.341Z,0
2017-11-29T02:49:43.894Z,0
2017-11-29T02:50:43.916Z,0
2017-11-29T02:51:43.663Z,0
2017-11-29T02:52:43.654Z,0
2017-11-29T02:53:43.658Z,0
2017-11-29T02:54:43.684Z,0
2017-11-29T02:55:43.686Z,0
2017-11-29T02:56:43.706Z,0
2017-11-29T02:57:43.824Z,0
2017-11-29T02:58:43.723Z,0
2017-11-29T02:59:44.003Z,0
2017-11-29T03:00:43.747Z,0
2017-11-29T03:01:44.033Z,0
2017-11-29T03:02:43.499Z,0
2017-11-29T03:03:43.775Z,0
2017-11-29T03:04:43.796Z,0
2017-11-29T03:05:44.069Z,0
2017-11-29T03:06:43.825Z,0
2017-11-29T03:07:44.095Z,0
2017-11-29T03:08:44.238Z,0
2017-11-29T03:09:43.572Z,0
2017-11-29T03:10:43.587Z,0
2017-11-29T03:11:43.872Z,0
2017-11-29T03:12:44.161Z,0
2017-11-29T03:13:43.884Z,0
2017-11-29T03:14:44.175Z,0
2017-11-29T03:15:44.189Z,0
2017-11-29T03:16:44.193Z,0
2017-11-29T03:17:44.211Z,0
2017-11-29T03:18:43.668Z,0
2017-11-29T03:19:43.963Z,0
2017-11-29T03:20:43.697Z,0
2017-11-29T03:21:44.260Z,0
2017-11-29T03:22:44.266Z,0
2017-11-29T03:23:44.005Z,0
2017-11-29T03:24:44.014Z,0
2017-11-29T03:25:44.031Z,0
2017-11-29T03:26:44.031Z,0
2017-11-29T03:27:44.049Z,0
2017-11-29T03:28:44.064Z,0
2017-11-29T03:29:44.067Z,0
2017-11-29T03:30:44.365Z,0
2017-11-29T03:31:44.362Z,0
2017-11-29T03:32:44.113Z,0
2017-11-29T03:33:44.387Z,0
2017-11-29T03:34:44.127Z,0
2017-11-29T03:35:44.450Z,0
2017-11-29T03:36:44.424Z,0
2017-11-29T03:37:44.436Z,0
2017-11-29T03:38:44.177Z,0
2017-11-29T03:39:44.189Z,0
2017-11-29T03:40:44.491Z,0
2017-11-29T03:41:44.472Z,0
2017-11-29T03:42:44.216Z,0
2017-11-29T03:43:44.257Z,0
2017-11-29T03:44:44.245Z,0
2017-11-29T03:45:44.540Z,0
2017-11-29T03:46:43.986Z,0
2017-11-29T03:47:44.551Z,0
2017-11-29T03:48:44.564Z,0
2017-11-29T03:49:44.571Z,0
2017-11-29T03:50:44.595Z,0
2017-11-29T03:51:44.621Z,0
2017-11-29T03:52:44.595Z,0
2017-11-29T03:53:44.072Z,0
2017-11-29T03:54:44.655Z,0
2017-11-29T03:55:44.377Z,0
2017-11-29T03:56:44.671Z,0
2017-11-29T03:57:44.658Z,0
2017-11-29T03:58:44.674Z,0
2017-11-29T03:59:44.668Z,0
2017-11-29T04:00:44.733Z,0
2017-11-29T04:01:44.702Z,0
2017-11-29T04:02:44.720Z,0
2017-11-29T04:03:44.745Z,0
2017-11-29T04:04:44.735Z,0
2017-11-29T04:05:44.475Z,0
2017-11-29T04:06:44.761Z,0
2017-11-29T04:07:44.757Z,0
2017-11-29T04:08:44.789Z,0
2017-11-29T04:09:44.793Z,0
2017-11-29T04:10:44.521Z,0
2017-11-29T04:11:44.844Z,0
2017-11-29T04:12:44.822Z,0
2017-11-29T04:13:44.558Z,0
2017-11-29T04:14:44.846Z,0
2017-11-29T04:15:44.851Z,0
2017-11-29T04:16:44.352Z,0
2017-11-29T04:17:44.878Z,0
2017-11-29T04:18:44.625Z,0
2017-11-29T04:19:44.909Z,0
2017-11-29T04:20:44.372Z,0
2017-11-29T04:21:44.675Z,0
2017-11-29T04:22:44.657Z,0
2017-11-29T04:23:44.950Z,0
2017-11-29T04:24:44.690Z,0
2017-11-29T04:25:44.153Z,0
2017-11-29T04:26:45.019Z,0
2017-11-29T04:27:44.988Z,0
2017-11-29T04:28:44.730Z,0
2017-11-29T04:29:44.470Z,0
2017-11-29T04:30:44.748Z,0
2017-11-29T04:31:44.776Z,0
2017-11-29T04:32:44.506Z,0
2017-11-29T04:33:44.689Z,0
2017-11-29T04:34:45.073Z,0
2017-11-29T04:35:45.081Z,0
2017-11-29T04:36:44.546Z,0
2017-11-29T04:37:45.114Z,0
2017-11-29T04:38:44.300Z,0
2017-11-29T04:39:45.130Z,0
2017-11-29T04:40:44.867Z,0
2017-11-29T04:41:44.875Z,0
2017-11-29T04:42:44.930Z,0
2017-11-29T04:43:44.913Z,0
2017-11-29T04:44:44.909Z,0
2017-11-29T04:45:44.919Z,0
2017-11-29T04:46:45.201Z,0
2017-11-29T04:47:44.666Z,0
2017-11-29T04:48:45.231Z,0
2017-11-29T04:49:44.961Z,0
2017-11-29T04:50:44.967Z,0
2017-11-29T04:51:44.983Z,0
2017-11-29T04:52:45.276Z,0
2017-11-29T04:53:45.016Z,0
2017-11-29T04:54:44.478Z,0
2017-11-29T04:55:45.030Z,0
2017-11-29T04:56:44.772Z,0
2017-11-29T04:57:45.062Z,0
2017-11-29T04:58:45.427Z,0
2017-11-29T04:59:45.630Z,0
2017-11-29T05:00:45.353Z,0
2017-11-29T05:01:45.094Z,0
2017-11-29T05:02:44.840Z,0
2017-11-29T05:03:45.398Z,0
2017-11-29T05:04:45.133Z,0
2017-11-29T05:05:45.143Z,0
2017-11-29T05:06:45.150Z,0
2017-11-29T05:07:45.435Z,0
2017-11-29T05:08:45.188Z,0
2017-11-29T05:09:45.456Z,0
2017-11-29T05:10:45.194Z,0
2017-11-29T05:11:45.477Z,0
2017-11-29T05:12:45.434Z,0
2017-11-29T05:13:45.224Z,0
2017-11-29T05:14:45.535Z,0
2017-11-29T05:15:45.519Z,0
2017-11-29T05:16:45.669Z,0
2017-11-29T05:17:45.546Z,0
2017-11-29T05:18:45.412Z,0
2017-11-29T05:19:45.293Z,0
2017-11-29T05:20:45.315Z,0
2017-11-29T05:21:45.333Z,0
2017-11-29T05:22:45.065Z,0
2017-11-29T05:23:45.381Z,0
2017-11-29T05:24:45.358Z,0
2017-11-29T05:25:45.641Z,0
2017-11-29T05:26:45.371Z,0
2017-11-29T05:27:45.105Z,0
2017-11-29T05:28:45.685Z,0
2017-11-29T05:29:45.403Z,0
2017-11-29T05:30:45.695Z,0
2017-11-29T05:31:45.429Z,0
2017-11-29T05:32:45.709Z,0
2017-11-29T05:33:45.716Z,0
2017-11-29T05:34:45.732Z,0
2017-11-29T05:35:45.770Z,0
2017-11-29T05:36:45.754Z,0
2017-11-29T05:37:45.771Z,0
2017-11-29T05:38:45.508Z,0
2017-11-29T05:39:45.538Z,0
2017-11-29T05:40:45.815Z,0
2017-11-29T05:41:45.814Z,0
2017-11-29T05:42:45.811Z,0
2017-11-29T05:43:45.561Z,0
2017-11-29T05:44:45.579Z,0
2017-11-29T05:45:45.598Z,0
2017-11-29T05:46:45.862Z,0
2017-11-29T05:47:45.900Z,0
2017-11-29T05:48:45.611Z,0
2017-11-29T05:49:45.627Z,0
2017-11-29T05:50:45.641Z,0
2017-11-29T05:51:45.368Z,0
2017-11-29T05:52:45.942Z,0
2017-11-29T05:53:45.712Z,0
2017-11-29T05:54:45.956Z,0
2017-11-29T05:55:45.966Z,0
2017-11-29T05:56:45.693Z,0
2017-11-29T05:57:45.445Z,0
2017-11-29T05:58:45.997Z,0
2017-11-29T05:59:45.733Z,0
2017-11-29T06:00:45.752Z,0
2017-11-29T06:01:45.209Z,0
2017-11-29T06:02:45.923Z,0
2017-11-29T06:03:45.505Z,0
2017-11-29T06:04:46.088Z,0
2017-11-29T06:05:46.083Z,0
2017-11-29T06:06:46.088Z,0
2017-11-29T06:07:45.816Z,0
2017-11-29T06:08:45.836Z,0
2017-11-29T06:09:46.214Z,0
2017-11-29T06:10:45.592Z,0
2017-11-29T06:11:45.321Z,0
2017-11-29T06:12:45.873Z,0
2017-11-29T06:13:46.158Z,0
2017-11-29T06:14:45.633Z,0
2017-11-29T06:15:45.955Z,0
2017-11-29T06:16:45.915Z,0
2017-11-29T06:17:46.200Z,0
2017-11-29T06:18:46.229Z,0
2017-11-29T06:19:45.672Z,0
2017-11-29T06:20:46.238Z,0
2017-11-29T06:21:45.702Z,0
2017-11-29T06:22:45.986Z,0
2017-11-29T06:23:46.263Z,0
2017-11-29T06:24:46.285Z,0
2017-11-29T06:25:46.290Z,0
2017-11-29T06:26:46.317Z,0
2017-11-29T06:27:46.034Z,0
2017-11-29T06:28:46.346Z,0
2017-11-29T06:29:45.790Z,0
2017-11-29T06:30:46.100Z,0
2017-11-29T06:31:46.088Z,4
2017-11-29T06:32:45.831Z,4
2017-11-29T06:33:46.394Z,4
2017-11-29T06:34:46.121Z,0
2017-11-29T06:35:46.394Z,4
2017-11-29T06:36:46.401Z,4
2017-11-29T06:37:46.157Z,8
2017-11-29T06:38:46.435Z,4
2017-11-29T06:39:46.193Z,8
2017-11-29T06:40:46.184Z,4
2017-11-29T06:41:46.203Z,8
2017-11-29T06:42:46.201Z,12
2017-11-29T06:43:46.484Z,12
2017-11-29T06:44:46.494Z,8
2017-11-29T06:45:46.255Z,16
2017-11-29T06:46:46.245Z,16
2017-11-29T06:47:46.529Z,16
2017-11-29T06:48:46.541Z,16
2017-11-29T06:49:46.553Z,16
2017-11-29T06:50:46.567Z,24
2017-11-29T06:51:46.310Z,24
2017-11-29T06:52:46.320Z,24
2017-11-29T06:53:46.601Z,28
2017-11-29T06:54:46.338Z,32
2017-11-29T06:55:46.336Z,36
2017-11-29T06:56:46.621Z,36
2017-11-29T06:57:46.640Z,36
2017-11-29T06:58:46.400Z,40
2017-11-29T06:59:46.651Z,44
2017-11-29T07:00:46.410Z,48
2017-11-29T07:01:46.414Z,48
2017-11-29T07:02:46.688Z,52
2017-11-29T07:03:46.158Z,56
2017-11-29T07:04:46.712Z,60
2017-11-29T07:05:46.733Z,60
2017-11-29T07:06:46.188Z,64
2017-11-29T07:07:46.770Z,68
2017-11-29T07:08:46.479Z,72
2017-11-29T07:09:46.520Z,76
2017-11-29T07:10:46.787Z,76
2017-11-29T07:11:46.515Z,80
2017-11-29T07:12:46.268Z,84
2017-11-29T07:13:46.809Z,88
2017-11-29T07:14:46.853Z,88
2017-11-29T07:15:46.283Z,88
2017-11-29T07:16:46.571Z,92
2017-11-29T07:17:46.883Z,96
2017-11-29T07:18:46.868Z,100
2017-11-29T07:19:46.876Z,104
2017-11-29T07:20:46.343Z,104
2017-11-29T07:21:46.662Z,104
2017-11-29T07:22:46.634Z,104
2017-11-29T07:23:46.930Z,112
2017-11-29T07:24:46.930Z,112
2017-11-29T07:25:46.659Z,116
2017-11-29T07:26:46.688Z,116
2017-11-29T07:27:46.708Z,120
2017-11-29T07:28:46.430Z,124
2017-11-29T07:29:46.493Z,128
2017-11-29T07:30:46.996Z,128
2017-11-29T07:31:46.744Z,128
2017-11-29T07:32:47.026Z,132
2017-11-29T07:33:47.077Z,132
2017-11-29T07:34:46.776Z,132
2017-11-29T07:35:46.779Z,132
2017-11-29T07:36:47.063Z,136
2017-11-29T07:37:47.073Z,136
2017-11-29T07:38:47.112Z,140
2017-11-29T07:39:47.129Z,140
2017-11-29T07:40:47.111Z,144
2017-11-29T07:41:46.846Z,140
2017-11-29T07:42:46.857Z,144
2017-11-29T07:43:46.893Z,148
2017-11-29T07:44:47.157Z,148
2017-11-29T07:45:46.892Z,148
2017-11-29T07:46:47.175Z,152
2017-11-29T07:47:47.198Z,152
2017-11-29T07:48:46.948Z,152
2017-11-29T07:49:46.675Z,156
2017-11-29T07:50:46.948Z,156
2017-11-29T07:51:47.437Z,156
2017-11-29T07:52:47.246Z,160
2017-11-29T07:53:46.978Z,164
2017-11-29T07:54:47.000Z,164
2017-11-29T07:55:47.009Z,164
2017-11-29T07:56:47.276Z,168
2017-11-29T07:57:47.018Z,168
2017-11-29T07:58:47.316Z,168
2017-11-29T07:59:47.042Z,168
2017-11-29T08:00:47.323Z,168
2017-11-29T08:01:47.075Z,168
2017-11-29T08:02:47.141Z,164
2017-11-29T08:03:46.557Z,164
2017-11-29T08:04:47.374Z,168
2017-11-29T08:05:47.411Z,164
2017-11-29T08:06:47.397Z,164
2017-11-29T08:07:47.128Z,164
2017-11-29T08:08:46.879Z,164
2017-11-29T08:09:47.424Z,160
2017-11-29T08:10:47.167Z,164
2017-11-29T08:11:47.446Z,164
2017-11-29T08:12:46.950Z,164
2017-11-29T08:13:46.922Z,164
2017-11-29T08:14:47.487Z,160
2017-11-29T08:15:47.502Z,164
2017-11-29T08:16:47.266Z,160
2017-11-29T08:17:47.240Z,164
2017-11-29T08:18:47.528Z,164
2017-11-29T08:19:47.543Z,164
2017-11-29T08:20:47.284Z,160
2017-11-29T08:21:47.287Z,164
2017-11-29T08:22:47.305Z,164
2017-11-29T08:23:47.574Z,160
2017-11-29T08:24:47.618Z,164
2017-11-29T08:25:47.339Z,164
2017-11-29T08:26:47.623Z,168
2017-11-29T08:27:47.361Z,168
2017-11-29T08:28:47.367Z,168
2017-11-29T08:29:47.664Z,172
2017-11-29T08:30:47.389Z,172
2017-11-29T08:31:47.679Z,176
2017-11-29T08:32:47.143Z,176
2017-11-29T08:33:47.729Z,180
2017-11-29T08:34:47.450Z,176
2017-11-29T08:35:47.736Z,180
2017-11-29T08:36:47.722Z,180
2017-11-29T08:37:47.456Z,180
2017-11-29T08:38:47.751Z,180
2017-11-29T08:39:47.770Z,180
2017-11-29T08:40:47.774Z,180
2017-11-29T08:41:47.783Z,180
2017-11-29T08:42:46.993Z,180
2017-11-29T08:43:47.803Z,184
2017-11-29T08:44:48.024Z,188
2017-11-29T08:45:48.018Z,188
2017-11-29T08:46:47.840Z,192
2017-11-29T08:47:47.843Z,196
2017-11-29T08:48:47.320Z,200
2017-11-29T08:49:47.606Z,208
2017-11-29T08:50:47.911Z,208
2017-11-29T08:51:47.918Z,216
2017-11-29T08:52:47.629Z,224
2017-11-29T08:53:47.641Z,232
2017-11-29T08:54:47.643Z,240
2017-11-29T08:55:47.663Z,248
2017-11-29T08:56:47.954Z,264
2017-11-29T08:57:47.949Z,272
2017-11-29T08:58:47.992Z,288
2017-11-29T08:59:47.752Z,308
2017-11-29T09:00:48.000Z,336
2017-11-29T09:01:47.724Z,348
2017-11-29T09:02:48.016Z,376
2017-11-29T09:03:48.040Z,396
2017-11-29T09:04:47.757Z,420
2017-11-29T09:05:48.055Z,448
2017-11-29T09:06:48.301Z,472
2017-11-29T09:07:48.071Z,496
2017-11-29T09:08:47.542Z,516
2017-11-29T09:09:48.097Z,536
2017-11-29T09:10:48.100Z,548
2017-11-29T09:11:48.097Z,556
2017-11-29T09:12:47.578Z,568
2017-11-29T09:13:48.132Z,568
2017-11-29T09:14:48.161Z,564
2017-11-29T09:15:47.612Z,560
2017-11-29T09:16:47.908Z,564
2017-11-29T09:17:47.935Z,564
2017-11-29T09:18:47.655Z,572
2017-11-29T09:19:48.243Z,592
2017-11-29T09:20:47.956Z,616
2017-11-29T09:21:47.941Z,640
2017-11-29T09:22:48.236Z,656
2017-11-29T09:23:48.394Z,668
2017-11-29T09:24:47.993Z,680
2017-11-29T09:25:48.292Z,692
2017-11-29T09:26:47.999Z,708
2017-11-29T09:27:48.020Z,724
2017-11-29T09:28:48.334Z,728
2017-11-29T09:29:48.043Z,728
2017-11-29T09:30:48.323Z,728
2017-11-29T09:31:48.334Z,720
2017-11-29T09:32:48.065Z,712
2017-11-29T09:33:48.072Z,704
2017-11-29T09:34:48.093Z,708
2017-11-29T09:35:48.381Z,712
2017-11-29T09:36:48.377Z,724
2017-11-29T09:37:48.619Z,732
2017-11-29T09:38:48.418Z,744
2017-11-29T09:39:48.415Z,764
2017-11-29T09:40:48.164Z,784
2017-11-29T09:41:48.442Z,796
2017-11-29T09:42:48.192Z,800
2017-11-29T09:43:47.909Z,792
2017-11-29T09:44:48.213Z,780
2017-11-29T09:45:48.480Z,768
2017-11-29T09:46:47.951Z,764
2017-11-29T09:47:48.236Z,768
2017-11-29T09:48:48.245Z,772
2017-11-29T09:49:48.266Z,768
2017-11-29T09:50:48.545Z,776
2017-11-29T09:51:48.581Z,772
2017-11-29T09:52:48.033Z,772
2017-11-29T09:53:47.780Z,768
2017-11-29T09:54:48.338Z,772
2017-11-29T09:55:48.610Z,780
2017-11-29T09:56:48.366Z,780
2017-11-29T09:57:48.629Z,784
2017-11-29T09:58:48.365Z,800
2017-11-29T09:59:48.719Z,820
2017-11-29T10:00:48.119Z,832
2017-11-29T10:01:48.389Z,840
2017-11-29T10:02:48.685Z,836
2017-11-29T10:03:48.427Z,820
2017-11-29T10:04:48.427Z,796
2017-11-29T10:05:48.447Z,776
2017-11-29T10:06:48.741Z,764
2017-11-29T10:07:48.735Z,748
2017-11-29T10:08:48.523Z,748
2017-11-29T10:09:48.488Z,748
2017-11-29T10:10:48.226Z,752
2017-11-29T10:11:48.240Z,756
2017-11-29T10:12:48.520Z,760
2017-11-29T10:13:48.531Z,756
2017-11-29T10:14:48.855Z,752
2017-11-29T10:15:48.557Z,748
2017-11-29T10:16:48.833Z,752
2017-11-29T10:17:48.848Z,748
2017-11-29T10:18:48.594Z,752
2017-11-29T10:19:48.864Z,768
2017-11-29T10:20:48.341Z,776
2017-11-29T10:21:48.906Z,792
2017-11-29T10:22:48.639Z,808
2017-11-29T10:23:48.925Z,804
2017-11-29T10:24:48.929Z,784
2017-11-29T10:25:48.947Z,768
2017-11-29T10:26:48.688Z,756
2017-11-29T10:27:48.692Z,748
2017-11-29T10:28:48.973Z,744
2017-11-29T10:29:49.007Z,744
2017-11-29T10:30:48.738Z,740
2017-11-29T10:31:48.748Z,748
2017-11-29T10:32:49.235Z,756
2017-11-29T10:33:49.030Z,764
2017-11-29T10:34:49.040Z,772
2017-11-29T10:35:49.089Z,772
2017-11-29T10:36:48.792Z,768
2017-11-29T10:37:48.802Z,760
2017-11-29T10:38:48.817Z,752
2017-11-29T10:39:49.104Z,752
2017-11-29T10:40:48.851Z,752
2017-11-29T10:41:49.129Z,740
2017-11-29T10:42:48.593Z,736
2017-11-29T10:43:49.150Z,744
2017-11-29T10:44:48.889Z,760
2017-11-29T10:45:48.914Z,776
2017-11-29T10:46:48.638Z,784
2017-11-29T10:47:48.667Z,780
2017-11-29T10:48:49.216Z,760
2017-11-29T10:49:49.236Z,740
2017-11-29T10:50:48.967Z,712
2017-11-29T10:51:49.243Z,684
2017-11-29T10:52:49.260Z,660
2017-11-29T10:53:49.294Z,656
2017-11-29T10:54:49.275Z,652
2017-11-29T10:55:49.280Z,652
2017-11-29T10:56:49.029Z,652
2017-11-29T10:57:49.037Z,640
2017-11-29T10:58:48.792Z,628
2017-11-29T10:59:48.797Z,624
2017-11-29T11:00:49.082Z,632
2017-11-29T11:01:49.086Z,632
2017-11-29T11:02:49.108Z,636
2017-11-29T11:03:49.120Z,648
2017-11-29T11:04:49.122Z,664
2017-11-29T11:05:49.149Z,680
2017-11-29T11:06:49.145Z,700
2017-11-29T11:07:49.439Z,720
2017-11-29T11:08:49.188Z,744
2017-11-29T11:09:49.185Z,764
2017-11-29T11:10:49.192Z,784
2017-11-29T11:11:49.209Z,812
2017-11-29T11:12:49.499Z,848
2017-11-29T11:13:49.232Z,884
2017-11-29T11:14:49.250Z,916
2017-11-29T11:15:49.254Z,948
2017-11-29T11:16:49.000Z,960
2017-11-29T11:17:49.574Z,964
2017-11-29T11:18:49.612Z,964
2017-11-29T11:19:49.591Z,972
2017-11-29T11:20:49.578Z,964
2017-11-29T11:21:49.599Z,956
2017-11-29T11:22:49.618Z,936
2017-11-29T11:23:49.339Z,932
2017-11-29T11:24:49.084Z,948
2017-11-29T11:25:49.649Z,972
2017-11-29T11:26:49.668Z,1004
2017-11-29T11:27:49.696Z,1016
2017-11-29T11:28:49.679Z,1008
2017-11-29T11:29:49.417Z,1004
2017-11-29T11:30:49.716Z,996
2017-11-29T11:31:49.450Z,992
2017-11-29T11:32:49.464Z,988
2017-11-29T11:33:49.196Z,992
2017-11-29T11:34:49.748Z,1008
2017-11-29T11:35:49.772Z,1028
2017-11-29T11:36:49.789Z,1012
2017-11-29T11:37:49.797Z,1016
2017-11-29T11:38:49.802Z,1000
2017-11-29T11:39:49.816Z,992
2017-11-29T11:40:49.829Z,1000
2017-11-29T11:41:49.574Z,996
2017-11-29T11:42:49.308Z,992
2017-11-29T11:43:49.876Z,968
2017-11-29T11:44:49.883Z,956
2017-11-29T11:45:49.344Z,928
2017-11-29T11:46:49.680Z,916
2017-11-29T11:47:49.912Z,912
2017-11-29T11:48:49.920Z,940
2017-11-29T11:49:49.660Z,900
2017-11-29T11:50:49.882Z,912
2017-11-29T11:51:49.709Z,896
2017-11-29T11:52:49.722Z,892
2017-11-29T11:53:50.184Z,892
2017-11-29T11:54:49.720Z,884
2017-11-29T11:55:49.731Z,864
2017-11-29T11:56:49.743Z,892
2017-11-29T11:57:50.057Z,816
2017-11-29T11:58:50.039Z,812
2017-11-29T11:59:49.778Z,824
2017-11-29T12:00:50.063Z,820
2017-11-29T12:01:50.080Z,812
2017-11-29T12:02:49.287Z,836
2017-11-29T12:03:50.104Z,764
2017-11-29T12:04:50.117Z,716
2017-11-29T12:05:50.136Z,736
2017-11-29T12:06:49.875Z,688
2017-11-29T12:07:50.158Z,648
2017-11-29T12:08:49.898Z,604
2017-11-29T12:09:50.185Z,572
2017-11-29T12:10:49.945Z,520
2017-11-29T12:11:50.201Z,504
2017-11-29T12:12:50.215Z,536
2017-11-29T12:13:50.226Z,460
2017-11-29T12:14:49.977Z,452
2017-11-29T12:15:50.253Z,432
2017-11-29T12:16:50.003Z,452
2017-11-29T12:17:50.285Z,428
2017-11-29T12:18:50.024Z,420
2017-11-29T12:19:50.314Z,412
2017-11-29T12:20:50.323Z,424
2017-11-29T12:21:50.324Z,424
2017-11-29T12:22:50.339Z,396
2017-11-29T12:23:50.350Z,392
2017-11-29T12:24:49.834Z,372
2017-11-29T12:25:50.395Z,356
2017-11-29T12:26:50.115Z,372
2017-11-29T12:27:50.404Z,380
2017-11-29T12:28:50.138Z,392
2017-11-29T12:29:50.194Z,392
2017-11-29T12:30:50.167Z,396
2017-11-29T12:31:50.442Z,384
2017-11-29T12:32:50.194Z,400
2017-11-29T12:33:50.488Z,408
2017-11-29T12:34:50.513Z,420
2017-11-29T12:35:50.501Z,428
2017-11-29T12:36:50.250Z,444
2017-11-29T12:37:50.521Z,460
2017-11-29T12:38:50.275Z,480
2017-11-29T12:39:50.278Z,476
2017-11-29T12:40:50.588Z,480
2017-11-29T12:41:50.302Z,472
2017-11-29T12:42:50.331Z,452
2017-11-29T12:43:50.607Z,440
2017-11-29T12:44:50.340Z,428
2017-11-29T12:45:50.364Z,420
2017-11-29T12:46:50.364Z,420
2017-11-29T12:47:50.386Z,428
2017-11-29T12:48:50.663Z,436
2017-11-29T12:49:50.683Z,440
2017-11-29T12:50:50.151Z,440
2017-11-29T12:51:50.747Z,436
2017-11-29T12:52:50.444Z,428
2017-11-29T12:53:50.737Z,424
2017-11-29T12:54:50.741Z,428
2017-11-29T12:55:50.750Z,444
2017-11-29T12:56:50.763Z,460
2017-11-29T12:57:50.795Z,472
2017-11-29T12:58:50.524Z,468
2017-11-29T12:59:50.538Z,460
2017-11-29T13:00:50.559Z,448
2017-11-29T13:01:50.557Z,432
2017-11-29T13:02:50.843Z,412
2017-11-29T13:03:50.851Z,396
2017-11-29T13:04:50.597Z,384
2017-11-29T13:05:50.625Z,368
2017-11-29T13:06:50.976Z,352
2017-11-29T13:07:50.647Z,340
2017-11-29T13:08:50.921Z,332
2017-11-29T13:09:50.649Z,324
2017-11-29T13:10:50.698Z,316
2017-11-29T13:11:50.961Z,312
2017-11-29T13:12:50.983Z,316
2017-11-29T13:13:50.989Z,328
2017-11-29T13:14:50.722Z,340
2017-11-29T13:15:51.004Z,344
2017-11-29T13:16:50.762Z,340
2017-11-29T13:17:51.031Z,336
2017-11-29T13:18:50.768Z,332
2017-11-29T13:19:50.803Z,320
2017-11-29T13:20:51.073Z,300
2017-11-29T13:21:51.093Z,284
2017-11-29T13:22:50.552Z,268
2017-11-29T13:23:50.846Z,264
2017-11-29T13:24:50.853Z,268
2017-11-29T13:25:51.153Z,268
2017-11-29T13:26:50.926Z,272
2017-11-29T13:27:51.153Z,268
2017-11-29T13:28:51.188Z,272
2017-11-29T13:29:50.924Z,276
2017-11-29T13:30:51.202Z,276
2017-11-29T13:31:50.944Z,288
2017-11-29T13:32:51.217Z,300
2017-11-29T13:33:51.255Z,312
2017-11-29T13:34:51.267Z,324
2017-11-29T13:35:51.005Z,324
2017-11-29T13:36:51.280Z,324
2017-11-29T13:37:51.288Z,324
2017-11-29T13:38:50.756Z,316
2017-11-29T13:39:51.051Z,316
2017-11-29T13:40:51.068Z,308
2017-11-29T13:41:51.078Z,296
2017-11-29T13:42:51.354Z,280
2017-11-29T13:43:51.370Z,264
2017-11-29T13:44:51.391Z,264
2017-11-29T13:45:51.121Z,264
2017-11-29T13:46:51.416Z,268
2017-11-29T13:47:51.429Z,276
2017-11-29T13:48:51.455Z,284
2017-11-29T13:49:50.898Z,284
2017-11-29T13:50:51.184Z,284
2017-11-29T13:51:51.197Z,276
2017-11-29T13:52:51.492Z,276
2017-11-29T13:53:51.227Z,288
2017-11-29T13:54:51.514Z,296
2017-11-29T13:55:51.520Z,300
2017-11-29T13:56:51.272Z,300
2017-11-29T13:57:51.273Z,296
2017-11-29T13:58:51.563Z,284
2017-11-29T13:59:51.592Z,264
2017-11-29T14:00:51.613Z,252
2017-11-29T14:01:51.605Z,256
2017-11-29T14:02:51.613Z,252
2017-11-29T14:03:51.640Z,244
2017-11-29T14:04:51.642Z,252
2017-11-29T14:05:51.651Z,268
2017-11-29T14:06:52.065Z,288
2017-11-29T14:07:51.401Z,308
2017-11-29T14:08:51.417Z,324
2017-11-29T14:09:51.712Z,340
2017-11-29T14:10:51.751Z,340
2017-11-29T14:11:50.912Z,328
2017-11-29T14:12:51.477Z,304
2017-11-29T14:13:51.493Z,288
2017-11-29T14:14:51.770Z,272